createdAt,value
2023-02-11T00:01:19.332Z,100143.17
2023-02-11T00:03:47.164Z,100132.67
2023-02-11T00:06:14.813Z,100131.39
2023-02-11T00:08:42.584Z,100126.65
2023-02-11T00:11:14.945Z,100129.24
2023-02-11T00:13:43.886Z,100129.06
2023-02-11T00:16:14.885Z,100128.48
2023-02-11T00:18:42.702Z,100130.27
2023-02-11T00:21:15.835Z,100135.52
2023-02-11T00:23:44.490Z,100136.77
2023-02-11T00:26:14.440Z,100128.56
2023-02-11T00:28:42.322Z,100127.80
2023-02-11T00:31:10.037Z,100127.65
2023-02-11T00:33:37.907Z,100117.84
2023-02-11T00:36:08.354Z,100111.41
2023-02-11T00:38:36.047Z,100100.07
2023-02-11T00:41:03.989Z,100097.48
2023-02-11T00:43:31.897Z,100097.13
2023-02-11T00:45:59.784Z,100098.77
2023-02-11T00:48:27.647Z,100091.86
2023-02-11T00:50:55.386Z,100091.64
2023-02-11T00:53:23.014Z,100094.13
2023-02-11T00:55:50.962Z,100087.44
2023-02-11T00:58:18.729Z,100080.21
2023-02-11T01:00:46.389Z,100074.02
2023-02-11T01:03:14.145Z,100071.52
2023-02-11T01:05:41.876Z,100064.13
2023-02-11T01:08:09.513Z,100056.02
2023-02-11T01:10:37.245Z,100052.34
2023-02-11T01:13:05.255Z,100037.44
2023-02-11T01:15:33.444Z,100020.02
2023-02-11T01:18:01.053Z,100001.83
2023-02-11T01:20:29.296Z,99999.73
2023-02-11T01:22:56.884Z,100000.48
2023-02-11T01:25:24.553Z,99993.77
2023-02-11T01:27:52.233Z,99983.17
2023-02-11T01:30:19.877Z,99971.95
2023-02-11T01:32:47.538Z,99969.83
2023-02-11T01:35:15.367Z,99978.64
2023-02-11T01:37:43.302Z,99983.94
2023-02-11T01:40:14.742Z,99998.41
2023-02-11T01:42:43.548Z,100007.66
2023-02-11T01:45:39.001Z,100010.52
2023-02-11T01:48:08.913Z,100004.52
2023-02-11T01:50:40.503Z,99996.48
2023-02-11T01:53:10.602Z,100005.49
2023-02-11T01:55:38.189Z,100002.14
2023-02-11T01:58:06.543Z,100001.95
2023-02-11T02:00:37.732Z,100006.29
2023-02-11T02:03:11.179Z,100002.78
2023-02-11T02:06:06.483Z,99996.44
2023-02-11T02:08:43.471Z,99999.79
2023-02-11T02:11:11.707Z,99995.77
2023-02-11T02:13:39.357Z,99991.48
2023-02-11T02:16:13.324Z,99987.02
2023-02-11T02:19:00.234Z,99987.47
2023-02-11T02:21:49.218Z,99981.56
2023-02-11T02:24:44.647Z,99977.66
2023-02-11T02:27:24.132Z,99967.86
2023-02-11T02:30:03.694Z,99946.97
2023-02-11T02:32:34.257Z,99945.10
2023-02-11T02:35:01.911Z,99933.17
2023-02-11T02:37:29.618Z,99925.61
2023-02-11T02:40:02.686Z,99915.24
2023-02-11T02:42:32.180Z,99911.41
2023-02-11T02:44:59.787Z,99905.39
2023-02-11T02:47:27.509Z,99892.98
2023-02-11T02:49:55.083Z,99887.06
2023-02-11T02:52:44.889Z,99878.32
2023-02-11T02:55:41.574Z,99871.48
2023-02-11T02:58:25.802Z,99859.95
2023-02-11T03:01:05.705Z,99854.61
2023-02-11T03:03:56.438Z,99854.29
2023-02-11T03:06:34.186Z,99858.77
2023-02-11T03:09:12.812Z,99850.69
2023-02-11T03:11:40.868Z,99856.99
2023-02-11T03:14:11.303Z,99860.64
2023-02-11T03:16:39.519Z,99865.20
2023-02-11T03:19:11.840Z,99859.67
2023-02-11T03:21:42.189Z,99862.77
2023-02-11T03:24:17.233Z,99859.13
2023-02-11T03:26:48.675Z,99855.96
2023-02-11T03:29:35.423Z,99854.80
2023-02-11T03:32:22.938Z,99863.86
2023-02-11T03:35:01.745Z,99860.41
2023-02-11T03:37:32.425Z,99854.21
2023-02-11T03:40:05.150Z,99845.85
2023-02-11T03:42:56.899Z,99842.59
2023-02-11T03:45:26.396Z,99845.92
2023-02-11T03:48:29.805Z,99833.39
2023-02-11T03:51:01.154Z,99832.60
2023-02-11T03:53:28.769Z,99826.72
2023-02-11T03:55:59.945Z,99818.35
2023-02-11T03:58:27.809Z,99808.64
2023-02-11T04:00:55.463Z,99802.27
2023-02-11T04:03:23.121Z,99795.57
2023-02-11T04:05:50.970Z,99786.51
2023-02-11T04:08:18.704Z,99778.61
2023-02-11T04:10:46.754Z,99768.99
2023-02-11T04:13:14.655Z,99768.31
2023-02-11T04:15:42.371Z,99764.13
2023-02-11T04:18:10.139Z,99755.55
2023-02-11T04:20:37.711Z,99755.36
2023-02-11T04:23:05.479Z,99750.33
2023-02-11T04:25:33.050Z,99748.30
2023-02-11T04:28:00.645Z,99746.14
2023-02-11T04:30:28.414Z,99744.77
2023-02-11T04:32:56.021Z,99738.38
2023-02-11T04:35:23.679Z,99733.29
2023-02-11T04:37:51.577Z,99735.12
2023-02-11T04:40:19.209Z,99736.48
2023-02-11T04:42:46.849Z,99739.33
2023-02-11T04:45:14.634Z,99736.55
2023-02-11T04:47:42.233Z,99751.83
2023-02-11T04:50:10.275Z,99753.88
2023-02-11T04:52:37.807Z,99750.94
2023-02-11T04:55:05.704Z,99744.45
2023-02-11T04:57:33.234Z,99746.52
2023-02-11T05:00:00.996Z,99745.20
2023-02-11T05:02:28.745Z,99737.02
2023-02-11T05:04:56.371Z,99731.70
2023-02-11T05:07:24.244Z,99743.52
2023-02-11T05:09:51.787Z,99740.95
2023-02-11T05:12:19.637Z,99733.77
2023-02-11T05:14:47.289Z,99728.97
2023-02-11T05:17:15.066Z,99717.30
2023-02-11T05:19:43.100Z,99718.72
2023-02-11T05:22:10.615Z,99716.27
2023-02-11T05:24:38.445Z,99723.41
2023-02-11T05:27:06.140Z,99717.59
2023-02-11T05:29:33.802Z,99715.48
2023-02-11T05:32:01.387Z,99711.84
2023-02-11T05:34:29.173Z,99712.05
2023-02-11T05:36:56.995Z,99721.36
2023-02-11T05:39:24.707Z,99728.64
2023-02-11T05:41:52.493Z,99732.02
2023-02-11T05:44:20.281Z,99734.08
2023-02-11T05:46:47.846Z,99733.91
2023-02-11T05:49:17.000Z,99733.95
2023-02-11T05:51:44.574Z,99735.81
2023-02-11T05:54:12.430Z,99735.84
2023-02-11T05:56:39.991Z,99724.67
2023-02-11T05:59:07.827Z,99706.40
2023-02-11T06:01:35.448Z,99687.61
2023-02-11T06:04:03.230Z,99680.45
2023-02-11T06:06:31.213Z,99673.08
2023-02-11T06:08:58.857Z,99671.08
2023-02-11T06:11:26.443Z,99678.11
2023-02-11T06:13:54.054Z,99674.61
2023-02-11T06:16:21.822Z,99673.77
2023-02-11T06:18:49.397Z,99671.77
2023-02-11T06:21:16.992Z,99664.89
2023-02-11T06:23:44.624Z,99664.94
2023-02-11T06:26:19.062Z,99674.21
2023-02-11T06:28:47.170Z,99679.78
2023-02-11T06:31:15.218Z,99673.77
2023-02-11T06:33:43.190Z,99669.11
2023-02-11T06:36:17.085Z,99655.60
2023-02-11T06:38:45.621Z,99650.99
2023-02-11T06:41:15.770Z,99644.00
2023-02-11T06:43:43.730Z,99640.54
2023-02-11T06:46:12.424Z,99635.23
2023-02-11T06:48:41.648Z,99638.16
2023-02-11T06:51:12.407Z,99653.48
2023-02-11T06:53:47.516Z,99651.84
2023-02-11T06:56:18.797Z,99656.27
2023-02-11T06:58:46.726Z,99652.92
2023-02-11T07:01:16.434Z,99655.86
2023-02-11T07:03:45.393Z,99655.23
2023-02-11T07:06:16.451Z,99652.46
2023-02-11T07:08:44.837Z,99658.39
2023-02-11T07:11:18.059Z,99658.60
2023-02-11T07:13:47.115Z,99664.34
2023-02-11T07:16:16.317Z,99663.66
2023-02-11T07:18:45.557Z,99672.64
2023-02-11T07:21:16.523Z,99671.29
2023-02-11T07:23:44.600Z,99665.08
2023-02-11T07:26:15.425Z,99663.02
2023-02-11T07:28:43.662Z,99665.69
2023-02-11T07:31:14.731Z,99659.12
2023-02-11T07:33:43.647Z,99651.34
2023-02-11T07:36:13.261Z,99648.65
2023-02-11T07:38:41.421Z,99651.35
2023-02-11T07:41:12.186Z,99654.23
2023-02-11T07:43:41.000Z,99651.04
2023-02-11T07:46:13.739Z,99652.58
2023-02-11T07:48:41.443Z,99645.27
2023-02-11T07:51:12.410Z,99643.35
2023-02-11T07:53:40.652Z,99645.30
2023-02-11T07:56:09.697Z,99638.45
2023-02-11T07:58:37.394Z,99635.80
2023-02-11T08:01:08.240Z,99628.98
2023-02-11T08:03:36.817Z,99619.13
2023-02-11T08:06:12.449Z,99622.96
2023-02-11T08:08:40.938Z,99624.58
2023-02-11T08:11:08.442Z,99626.23
2023-02-11T08:13:36.173Z,99623.98
2023-02-11T08:16:05.166Z,99623.25
2023-02-11T08:18:33.733Z,99633.52
2023-02-11T08:21:06.370Z,99627.02
2023-02-11T08:23:38.230Z,99623.78
2023-02-11T08:26:09.029Z,99627.59
2023-02-11T08:28:39.310Z,99633.11
2023-02-11T08:31:09.070Z,99632.64
2023-02-11T08:33:37.325Z,99641.77
2023-02-11T08:36:09.785Z,99640.46
2023-02-11T08:38:37.882Z,99643.36
2023-02-11T08:41:05.589Z,99642.86
2023-02-11T08:43:33.597Z,99643.09
2023-02-11T08:46:02.611Z,99628.76
2023-02-11T08:48:30.579Z,99629.61
2023-02-11T08:50:58.324Z,99622.45
2023-02-11T08:53:26.795Z,99622.51
2023-02-11T08:55:55.548Z,99608.89
2023-02-11T08:58:23.435Z,99612.80
2023-02-11T09:00:51.455Z,99619.23
2023-02-11T09:03:19.515Z,99623.64
2023-02-11T09:05:49.397Z,99615.39
2023-02-11T09:08:17.398Z,99604.12
2023-02-11T09:10:45.603Z,99614.67
2023-02-11T09:13:13.484Z,99624.58
2023-02-11T09:15:44.884Z,99620.81
2023-02-11T09:18:13.698Z,99621.39
2023-02-11T09:20:41.893Z,99620.89
2023-02-11T09:23:09.890Z,99627.52
2023-02-11T09:25:40.409Z,99633.14
2023-02-11T09:28:08.670Z,99635.52
2023-02-11T09:30:37.703Z,99639.08
2023-02-11T09:33:05.360Z,99637.22
2023-02-11T09:35:33.766Z,99639.25
2023-02-11T09:38:01.427Z,99636.89
2023-02-11T09:40:29.140Z,99637.05
2023-02-11T09:43:19.491Z,99641.79
2023-02-11T09:45:48.088Z,99651.69
2023-02-11T09:48:20.250Z,99653.37
2023-02-11T09:50:54.744Z,99652.01
2023-02-11T09:53:32.700Z,99647.63
2023-02-11T09:56:02.833Z,99645.27
2023-02-11T09:58:34.554Z,99635.50
2023-02-11T10:01:27.722Z,99629.73
2023-02-11T10:04:14.437Z,99620.48
2023-02-11T10:06:47.175Z,99619.00
2023-02-11T10:09:36.410Z,99609.09
2023-02-11T10:12:28.604Z,99604.24
2023-02-11T10:15:13.594Z,99606.30
2023-02-11T10:17:59.789Z,99605.15
2023-02-11T10:20:38.784Z,99601.63
2023-02-11T10:23:28.273Z,99589.46
2023-02-11T10:25:58.634Z,99589.81
2023-02-11T10:28:36.745Z,99580.33
2023-02-11T10:31:11.028Z,99562.23
2023-02-11T10:33:44.699Z,99551.23
2023-02-11T10:36:15.313Z,99554.27
2023-02-11T10:38:44.617Z,99535.33
2023-02-11T10:41:19.398Z,99528.39
2023-02-11T10:43:47.120Z,99503.36
2023-02-11T10:46:19.683Z,99509.80
2023-02-11T10:48:52.526Z,99500.99
2023-02-11T10:51:24.218Z,99487.69
2023-02-11T10:54:03.789Z,99472.68
2023-02-11T10:56:37.994Z,99458.90
2023-02-11T10:59:15.257Z,99454.03
2023-02-11T11:01:50.997Z,99447.17
2023-02-11T11:04:30.653Z,99444.01
2023-02-11T11:07:09.901Z,99449.10
2023-02-11T11:10:05.163Z,99455.77
2023-02-11T11:12:44.600Z,99465.77
2023-02-11T11:15:20.952Z,99477.23
2023-02-11T11:17:50.284Z,99474.51
2023-02-11T11:20:25.617Z,99485.07
2023-02-11T11:23:18.552Z,99483.42
2023-02-11T11:26:03.576Z,99482.95
2023-02-11T11:28:37.040Z,99481.77
2023-02-11T11:31:12.249Z,99479.90
2023-02-11T11:33:42.937Z,99480.74
2023-02-11T11:36:15.414Z,99477.20
2023-02-11T11:38:48.965Z,99468.25
2023-02-11T11:41:16.524Z,99477.55
2023-02-11T11:44:24.181Z,99485.98
2023-02-11T11:47:25.148Z,99486.48
2023-02-11T11:50:03.466Z,99481.92
2023-02-11T11:52:48.246Z,99474.98
2023-02-11T11:55:23.006Z,99476.17
2023-02-11T11:57:51.337Z,99480.39
2023-02-11T12:00:31.678Z,99481.05
2023-02-11T12:03:02.300Z,99480.04
2023-02-11T12:05:42.090Z,99483.41
2023-02-11T12:08:22.434Z,99486.27
2023-02-11T12:11:01.923Z,99490.48
2023-02-11T12:13:32.680Z,99482.20
2023-02-11T12:16:13.915Z,99482.88
2023-02-11T12:18:56.544Z,99496.88
2023-02-11T12:21:34.869Z,99500.61
2023-02-11T12:24:37.376Z,99495.39
2023-02-11T12:27:29.387Z,99487.96
2023-02-11T12:30:26.275Z,99484.42
2023-02-11T12:33:00.335Z,99477.83
2023-02-11T12:35:56.357Z,99477.14
2023-02-11T12:38:48.303Z,99478.30
2023-02-11T12:41:37.496Z,99467.33
2023-02-11T12:44:10.768Z,99455.66
2023-02-11T12:47:23.551Z,99453.46
2023-02-11T12:50:17.139Z,99436.92
2023-02-11T12:53:10.282Z,99414.62
2023-02-11T12:55:43.197Z,99412.42
2023-02-11T12:58:18.407Z,99422.38
2023-02-11T13:00:53.235Z,99417.30
2023-02-11T13:03:28.951Z,99404.30
2023-02-11T13:06:05.518Z,99410.19
2023-02-11T13:08:35.415Z,99421.84
2023-02-11T13:11:14.324Z,99424.35
2023-02-11T13:13:45.313Z,99431.76
2023-02-11T13:16:33.246Z,99433.77
2023-02-11T13:19:14.618Z,99416.05
2023-02-11T13:22:10.625Z,99406.27
2023-02-11T13:24:50.745Z,99397.15
2023-02-11T13:27:54.968Z,99405.92
2023-02-11T13:30:27.676Z,99406.08
2023-02-11T13:32:55.198Z,99401.02
2023-02-11T13:35:31.491Z,99385.69
2023-02-11T13:38:02.075Z,99350.44
2023-02-11T13:40:36.646Z,99329.68
2023-02-11T13:43:07.171Z,99300.83
2023-02-11T13:45:45.178Z,99310.98
2023-02-11T13:48:22.714Z,99323.46
2023-02-11T13:50:54.481Z,99323.30
2023-02-11T13:53:23.698Z,99321.09
2023-02-11T13:56:04.092Z,99329.69
2023-02-11T13:58:31.778Z,99330.20
2023-02-11T14:00:59.606Z,99334.25
2023-02-11T14:03:27.416Z,99335.77
2023-02-11T14:06:10.639Z,99354.16
2023-02-11T14:09:10.195Z,99364.11
2023-02-11T14:11:40.579Z,99376.43
2023-02-11T14:14:27.652Z,99373.73
2023-02-11T14:16:58.567Z,99392.46
2023-02-11T14:19:45.941Z,99390.26
2023-02-11T14:22:25.435Z,99397.18
2023-02-11T14:25:05.040Z,99398.68
2023-02-11T14:27:44.329Z,99407.95
2023-02-11T14:30:34.233Z,99409.13
2023-02-11T14:33:34.596Z,99408.42
2023-02-11T14:36:28.604Z,99406.66
2023-02-11T14:39:13.539Z,99412.69
2023-02-11T14:41:44.096Z,99421.75
2023-02-11T14:44:24.300Z,99427.63
2023-02-11T14:46:53.762Z,99427.26
2023-02-11T14:49:27.406Z,99417.97
2023-02-11T14:52:04.435Z,99409.67
2023-02-11T14:54:33.801Z,99398.17
2023-02-11T14:57:27.740Z,99396.96
2023-02-11T15:00:01.285Z,99405.21
2023-02-11T15:02:34.501Z,99417.14
2023-02-11T15:05:17.879Z,99412.58
2023-02-11T15:07:48.623Z,99412.03
2023-02-11T15:10:43.813Z,99415.54
2023-02-11T15:13:23.396Z,99417.86
2023-02-11T15:15:55.640Z,99421.19
2023-02-11T15:18:28.879Z,99424.55
2023-02-11T15:20:56.654Z,99417.42
2023-02-11T15:23:29.797Z,99421.47
2023-02-11T15:25:57.740Z,99431.05
2023-02-11T15:28:29.085Z,99436.74
2023-02-11T15:30:57.989Z,99439.27
2023-02-11T15:33:26.067Z,99441.11
2023-02-11T15:35:53.913Z,99449.52
2023-02-11T15:38:21.776Z,99448.35
2023-02-11T15:40:59.348Z,99448.33
2023-02-11T15:43:46.811Z,99444.44
2023-02-11T15:46:20.740Z,99449.98
2023-02-11T15:48:53.895Z,99445.27
2023-02-11T15:51:31.679Z,99443.91
2023-02-11T15:54:02.197Z,99443.73
2023-02-11T15:56:38.979Z,99441.52
2023-02-11T15:59:17.232Z,99448.58
2023-02-11T16:01:45.903Z,99455.14
2023-02-11T16:04:20.426Z,99462.01
2023-02-11T16:06:48.861Z,99466.70
2023-02-11T16:09:16.642Z,99464.67
2023-02-11T16:11:48.261Z,99466.01
2023-02-11T16:14:28.418Z,99467.48
2023-02-11T16:17:02.347Z,99464.27
2023-02-11T16:19:31.579Z,99465.12
2023-02-11T16:22:06.426Z,99466.11
2023-02-11T16:24:36.984Z,99464.95
2023-02-11T16:27:18.216Z,99466.98
2023-02-11T16:29:48.481Z,99462.92
2023-02-11T16:32:24.646Z,99461.25
2023-02-11T16:34:53.632Z,99462.26
2023-02-11T16:37:21.350Z,99466.98
2023-02-11T16:39:49.150Z,99477.23
2023-02-11T16:42:16.870Z,99478.42
2023-02-11T16:44:44.651Z,99474.55
2023-02-11T16:47:23.782Z,99468.15
2023-02-11T16:49:51.816Z,99474.38
2023-02-11T16:52:21.759Z,99474.04
2023-02-11T16:54:49.679Z,99483.13
2023-02-11T16:57:23.334Z,99491.54
2023-02-11T16:59:52.075Z,99497.60
2023-02-11T17:02:26.967Z,99496.09
2023-02-11T17:04:56.117Z,99492.73
2023-02-11T17:07:23.920Z,99488.02
2023-02-11T17:09:52.006Z,99486.17
2023-02-11T17:12:20.786Z,99489.88
2023-02-11T17:14:48.594Z,99495.61
2023-02-11T17:17:16.596Z,99499.17
2023-02-11T17:19:44.548Z,99507.61
2023-02-11T17:22:12.312Z,99498.52
2023-02-11T17:24:40.842Z,99493.66
2023-02-11T17:27:11.170Z,99495.70
2023-02-11T17:29:38.769Z,99497.57
2023-02-11T17:32:06.856Z,99499.09
2023-02-11T17:34:34.622Z,99500.27
2023-02-11T17:37:02.246Z,99494.23
2023-02-11T17:39:30.657Z,99493.75
2023-02-11T17:41:58.840Z,99492.23
2023-02-11T17:44:26.755Z,99499.15
2023-02-11T17:46:54.720Z,99491.77
2023-02-11T17:49:22.635Z,99493.82
2023-02-11T17:51:50.312Z,99493.16
2023-02-11T17:54:19.316Z,99494.55
2023-02-11T17:56:49.335Z,99489.33
2023-02-11T17:59:17.999Z,99493.90
2023-02-11T18:01:46.058Z,99499.99
2023-02-11T18:04:17.812Z,99490.60
2023-02-11T18:06:46.185Z,99497.02
2023-02-11T18:09:13.881Z,99492.52
2023-02-11T18:11:41.597Z,99502.17
2023-02-11T18:14:10.442Z,99499.70
2023-02-11T18:16:38.737Z,99504.63
2023-02-11T18:19:07.451Z,99497.77
2023-02-11T18:21:35.282Z,99501.48
2023-02-11T18:24:06.714Z,99501.48
2023-02-11T18:26:35.502Z,99500.49
2023-02-11T18:29:04.500Z,99494.27
2023-02-11T18:31:32.677Z,99491.76
2023-02-11T18:34:00.528Z,99494.99
2023-02-11T18:36:28.389Z,99497.02
2023-02-11T18:38:56.121Z,99504.45
2023-02-11T18:41:23.741Z,99506.67
2023-02-11T18:43:51.402Z,99512.92
2023-02-11T18:46:19.682Z,99510.91
2023-02-11T18:48:47.493Z,99514.97
2023-02-11T18:51:18.105Z,99514.80
2023-02-11T18:53:46.494Z,99514.80
2023-02-11T18:56:19.806Z,99518.52
2023-02-11T18:58:48.462Z,99521.92
2023-02-11T19:01:22.232Z,99526.98
2023-02-11T19:03:50.466Z,99523.27
2023-02-11T19:06:21.314Z,99525.13
2023-02-11T19:08:49.045Z,99530.39
2023-02-11T19:11:17.146Z,99527.70
2023-02-11T19:13:45.110Z,99532.92
2023-02-11T19:16:12.846Z,99534.78
2023-02-11T19:18:40.539Z,99539.67
2023-02-11T19:21:09.834Z,99543.73
2023-02-11T19:23:38.363Z,99546.77
2023-02-11T19:26:06.275Z,99545.77
2023-02-11T19:28:35.006Z,99546.45
2023-02-11T19:31:08.569Z,99543.76
2023-02-11T19:33:36.944Z,99545.61
2023-02-11T19:36:06.816Z,99548.84
2023-02-11T19:38:36.078Z,99547.67
2023-02-11T19:41:04.117Z,99545.98
2023-02-11T19:43:32.049Z,99550.71
2023-02-11T19:46:02.514Z,99552.73
2023-02-11T19:48:30.380Z,99553.91
2023-02-11T19:50:58.287Z,99552.58
2023-02-11T19:53:26.398Z,99555.80
2023-02-11T19:55:54.695Z,99555.64
2023-02-11T19:58:22.270Z,99555.46
2023-02-11T20:00:50.063Z,99555.98
2023-02-11T20:03:17.720Z,99555.68
2023-02-11T20:05:45.426Z,99555.86
2023-02-11T20:08:14.381Z,99550.12
2023-02-11T20:10:42.048Z,99550.29
2023-02-11T20:13:09.868Z,99551.33
2023-02-11T20:15:37.657Z,99551.16
2023-02-11T20:18:05.600Z,99551.67
2023-02-11T20:20:33.402Z,99551.33
2023-02-11T20:23:01.203Z,99554.73
2023-02-11T20:25:29.229Z,99557.44
2023-02-11T20:27:57.048Z,99554.91
2023-02-11T20:30:25.033Z,99555.92
2023-02-11T20:32:53.432Z,99560.64
2023-02-11T20:35:21.057Z,99559.33
2023-02-11T20:37:48.711Z,99566.58
2023-02-11T20:40:16.617Z,99570.97
2023-02-11T20:42:44.404Z,99570.97
2023-02-11T20:45:15.141Z,99572.15
2023-02-11T20:47:42.965Z,99570.30
2023-02-11T20:50:12.285Z,99570.64
2023-02-11T20:52:39.986Z,99568.81
2023-02-11T20:55:07.994Z,99573.53
2023-02-11T20:57:37.341Z,99577.75
2023-02-11T21:00:06.075Z,99579.27
2023-02-11T21:02:33.996Z,99581.98
2023-02-11T21:05:01.647Z,99583.52
2023-02-11T21:07:29.291Z,99584.36
2023-02-11T21:09:57.130Z,99586.91
2023-02-11T21:12:24.785Z,99591.29
2023-02-11T21:14:52.433Z,99593.33
2023-02-11T21:17:20.103Z,99591.15
2023-02-11T21:19:47.779Z,99591.50
2023-02-11T21:22:15.382Z,99592.55
2023-02-11T21:24:42.934Z,99599.80
2023-02-11T21:27:10.624Z,99601.85
2023-02-11T21:29:52.794Z,99606.41
2023-02-11T21:32:21.507Z,99606.40
2023-02-11T21:34:49.096Z,99609.65
2023-02-11T21:37:16.882Z,99610.84
2023-02-11T21:39:44.615Z,99610.33
2023-02-11T21:42:12.321Z,99615.94
2023-02-11T21:44:39.932Z,99622.36
2023-02-11T21:47:07.477Z,99632.02
2023-02-11T21:49:35.070Z,99635.05
2023-02-11T21:52:02.741Z,99641.83
2023-02-11T21:54:30.433Z,99646.41
2023-02-11T21:56:59.621Z,99640.66
2023-02-11T21:59:27.244Z,99643.56
2023-02-11T22:01:55.193Z,99641.70
2023-02-11T22:04:22.889Z,99643.06
2023-02-11T22:06:50.617Z,99649.33
2023-02-11T22:09:18.247Z,99649.67
2023-02-11T22:11:45.885Z,99647.13
2023-02-11T22:14:13.540Z,99647.98
2023-02-11T22:16:41.278Z,99650.52
2023-02-11T22:19:09.249Z,99653.72
2023-02-11T22:21:36.892Z,99654.23
2023-02-11T22:24:04.953Z,99653.72
2023-02-11T22:26:32.950Z,99657.96
2023-02-11T22:29:00.672Z,99661.69
2023-02-11T22:31:31.478Z,99670.13
2023-02-11T22:34:00.253Z,99670.98
2023-02-11T22:36:31.046Z,99672.33
2023-02-11T22:39:06.722Z,99672.67
2023-02-11T22:41:34.860Z,99675.39
2023-02-11T22:44:02.544Z,99678.41
2023-02-11T22:46:30.402Z,99679.79
2023-02-11T22:48:58.391Z,99683.16
2023-02-11T22:51:29.028Z,99686.04
2023-02-11T22:54:02.468Z,99697.36
2023-02-11T22:56:32.091Z,99694.66
2023-02-11T22:59:05.216Z,99693.98
2023-02-11T23:01:33.632Z,99699.05
2023-02-11T23:04:04.229Z,99702.60
2023-02-11T23:06:32.293Z,99705.14
2023-02-11T23:09:00.147Z,99705.48
2023-02-11T23:11:30.134Z,99703.10
2023-02-11T23:13:58.543Z,99708.68
2023-02-11T23:16:31.875Z,99707.48
2023-02-11T23:19:01.372Z,99708.50
2023-02-11T23:21:32.050Z,99703.45
2023-02-11T23:24:03.415Z,99705.64
2023-02-11T23:26:31.244Z,99711.38
2023-02-11T23:28:59.926Z,99706.65
2023-02-11T23:31:31.412Z,99714.27
2023-02-11T23:34:00.333Z,99713.92
2023-02-11T23:36:28.760Z,99711.21
2023-02-11T23:38:56.511Z,99713.59
2023-02-11T23:41:24.756Z,99715.44
2023-02-11T23:43:55.464Z,99713.25
2023-02-11T23:46:25.016Z,99712.57
2023-02-11T23:48:53.075Z,99713.59
2023-02-11T23:51:21.077Z,99717.30
2023-02-11T23:53:48.900Z,99714.09
2023-02-11T23:56:20.389Z,99712.91
2023-02-11T23:58:51.254Z,99713.75
